Terminal Aerodrome Forecast
Issued by NWS Central Illinois

Home | Current Version | Previous Version | Text Only | Print | Product List | Glossary On
Versions: 1 2 3 4 5 6 7 8 9 10 11 12 13 14 15 16 17
000
FTUS43 KILX 280531
TAFSPI
TAF
KSPI 280531Z 2806/2906 10005KT P6SM OVC250
     FM280800 10003KT 2SM BR SCT250
     FM281200 10005KT P6SM VCTS SCT025CB
     FM281700 18008KT P6SM SCT035=

USA.gov is the U.S. government's official web portal to all federal, state and local government web resources and services.